Terminal Aerodrome Forecast
Issued by NWS

Home | Current Version | Previous Version | Graphics & Text | Print | Product List | Glossary On
Versions: 1 2 3 4 5 6 7 8 9 10 11 12 13 14
000
FTUS43 KBIS 281742
TAFDIK
TAF
KDIK 281742Z 2818/2918 12007KT P6SM SCT200
     FM290500 17006KT P6SM VCSH BKN070
     FM291100 19005KT P6SM BKN060
     FM291500 21006KT P6SM SCT050=

USA.gov is the U.S. government's official web portal to all federal, state and local government web resources and services.